Time;durP1;ratioP1;P1;durP2;ratioP2;P2;SDS_P1;SDS_P2;PMS_P1;PMS_P2;Temp;Humidity;BMP_temperature;BMP_pressure;BME280_temperature;BME280_humidity;BME280_pressure;Samples;Min_cycle;Max_cycle;Signal;HPM_P1;HPM_P2
2021/10/30 00:00:10;;;;;;;13.70;2.58;;;15.70;67.60;;;;;;5061539;28;20104;-75
2021/10/30 00:02:36;;;;;;;15.55;2.13;;;15.60;67.30;;;;;;5060279;28;20025;-75
2021/10/30 00:05:04;;;;;;;10.88;2.15;;;15.60;67.10;;;;;;5060972;28;20043;-75
2021/10/30 00:07:30;;;;;;;10.05;2.58;;;15.60;66.80;;;;;;5061482;28;20025;-75
2021/10/30 00:09:56;;;;;;;11.70;2.40;;;15.60;66.80;;;;;;5061367;28;20052;-75
2021/10/30 00:12:22;;;;;;;14.48;3.13;;;15.60;66.80;;;;;;5061277;28;20025;-75
2021/10/30 00:14:48;;;;;;;14.68;2.55;;;15.60;66.80;;;;;;5058969;28;20475;-75
2021/10/30 00:17:15;;;;;;;12.57;2.08;;;15.60;66.80;;;;;;5061111;28;20108;-75
2021/10/30 00:19:41;;;;;;;9.20;2.10;;;15.60;66.50;;;;;;5060947;28;20021;-75
2021/10/30 00:22:08;;;;;;;10.73;1.88;;;15.50;66.30;;;;;;5059964;28;20343;-75
2021/10/30 00:24:34;;;;;;;15.38;2.78;;;15.50;66.60;;;;;;5060886;28;20379;-75
2021/10/30 00:27:01;;;;;;;11.18;2.03;;;15.60;66.70;;;;;;5060777;28;20455;-76
2021/10/30 00:29:27;;;;;;;12.25;2.28;;;15.60;67.20;;;;;;5060885;28;20096;-75
2021/10/30 00:31:54;;;;;;;14.57;2.42;;;15.60;67.20;;;;;;5059754;28;20450;-75
2021/10/30 00:34:20;;;;;;;12.90;2.95;;;15.60;67.10;;;;;;5061158;28;20383;-75
2021/10/30 00:36:46;;;;;;;14.30;2.55;;;15.60;67.20;;;;;;5060749;28;20053;-75
2021/10/30 00:39:12;;;;;;;12.38;2.20;;;15.50;67.00;;;;;;5060691;28;20029;-75
2021/10/30 00:41:38;;;;;;;11.00;2.55;;;15.60;67.30;;;;;;5060638;28;20025;-76
2021/10/30 00:44:10;;;;;;;9.73;2.15;;;15.60;67.30;;;;;;5060550;28;20051;-75
2021/10/30 00:46:44;;;;;;;10.25;2.35;;;15.60;67.30;;;;;;5060353;28;20045;-76
2021/10/30 00:49:11;;;;;;;18.52;2.40;;;15.50;67.10;;;;;;5059597;28;20025;-76
2021/10/30 00:51:39;;;;;;;15.32;2.13;;;15.50;67.20;;;;;;5060446;28;20398;-76
2021/10/30 00:54:05;;;;;;;11.13;2.58;;;15.60;67.20;;;;;;5060428;28;20029;-76
2021/10/30 00:56:32;;;;;;;16.52;2.75;;;15.60;67.20;;;;;;5060469;28;20051;-76
2021/10/30 00:59:09;;;;;;;13.10;2.50;;;15.60;67.20;;;;;;5060313;28;20017;-75
2021/10/30 01:01:36;;;;;;;14.68;2.45;;;15.60;67.20;;;;;;5060517;28;20072;-76
2021/10/30 01:04:03;;;;;;;15.20;2.78;;;15.60;67.30;;;;;;5060390;28;20013;-76
2021/10/30 01:06:30;;;;;;;13.68;2.50;;;15.60;67.10;;;;;;5060426;28;20025;-75
2021/10/30 01:08:57;;;;;;;13.60;2.60;;;15.60;67.30;;;;;;5060486;28;20017;-76
2021/10/30 01:11:23;;;;;;;11.00;2.10;;;15.60;67.40;;;;;;5059072;28;20029;-76
2021/10/30 01:13:50;;;;;;;13.55;3.95;;;15.60;67.40;;;;;;5060376;28;20021;-76
2021/10/30 01:16:18;;;;;;;14.05;2.58;;;15.60;67.50;;;;;;5059979;28;20035;-76
2021/10/30 01:18:45;;;;;;;15.48;2.63;;;15.60;67.70;;;;;;5058932;28;20020;-76
2021/10/30 01:21:11;;;;;;;16.77;2.30;;;15.70;67.70;;;;;;5059819;28;20447;-81
2021/10/30 01:23:37;;;;;;;12.85;2.25;;;15.60;67.60;;;;;;5060403;28;20084;-75
2021/10/30 01:26:03;;;;;;;13.63;2.75;;;15.60;67.50;;;;;;5059912;28;20143;-75
2021/10/30 01:28:31;;;;;;;17.42;3.30;;;15.70;67.60;;;;;;5058709;28;20092;-75
2021/10/30 01:30:58;;;;;;;14.23;2.50;;;15.60;67.50;;;;;;5060196;28;20032;-75
2021/10/30 01:33:24;;;;;;;17.50;2.65;;;15.60;67.60;;;;;;5059936;28;20025;-75
2021/10/30 01:35:50;;;;;;;14.07;2.42;;;15.70;67.70;;;;;;5059727;28;20127;-75
2021/10/30 01:38:17;;;;;;;18.30;3.03;;;15.70;67.90;;;;;;5059800;28;20032;-75
2021/10/30 01:40:48;;;;;;;16.35;3.05;;;15.70;68.10;;;;;;5059845;28;20031;-75
2021/10/30 01:43:15;;;;;;;17.77;2.80;;;15.70;68.30;;;;;;5059953;28;20017;-75
2021/10/30 01:45:42;;;;;;;17.38;3.17;;;15.70;68.30;;;;;;5059403;28;20021;-76
2021/10/30 01:48:08;;;;;;;16.75;2.72;;;15.70;68.40;;;;;;5059433;28;20029;-75
2021/10/30 01:50:35;;;;;;;13.30;2.65;;;15.70;68.60;;;;;;5059444;28;20036;-75
2021/10/30 01:53:03;;;;;;;13.80;2.88;;;15.70;68.80;;;;;;5059550;28;20036;-75
2021/10/30 01:55:32;;;;;;;17.40;2.78;;;15.70;69.20;;;;;;5059286;28;20029;-75
2021/10/30 01:57:58;;;;;;;17.15;3.38;;;15.70;69.70;;;;;;5059187;28;20028;-75
2021/10/30 02:00:24;;;;;;;17.02;2.85;;;15.60;70.10;;;;;;5058139;28;20451;-75
2021/10/30 02:02:50;;;;;;;17.23;4.05;;;15.70;70.60;;;;;;5059394;28;20124;-75
2021/10/30 02:05:16;;;;;;;18.60;3.80;;;15.70;71.10;;;;;;5059416;28;20087;-75
2021/10/30 02:07:42;;;;;;;18.48;3.30;;;15.60;73.00;;;;;;5059138;28;20466;-76
2021/10/30 02:10:10;;;;;;;19.15;4.25;;;15.50;73.90;;;;;;5059199;28;20033;-76
2021/10/30 02:12:36;;;;;;;17.85;3.72;;;15.50;74.10;;;;;;5058963;28;20032;-76
2021/10/30 02:15:04;;;;;;;25.92;3.95;;;15.50;74.20;;;;;;5059154;28;20112;-76
2021/10/30 02:17:30;;;;;;;20.92;4.25;;;15.50;74.70;;;;;;5058842;28;20025;-76
2021/10/30 02:19:56;;;;;;;19.23;3.97;;;15.50;75.00;;;;;;5059361;28;20397;-76
2021/10/30 02:22:22;;;;;;;21.83;4.13;;;15.50;75.10;;;;;;5058997;28;20021;-76
2021/10/30 02:24:48;;;;;;;24.35;4.00;;;15.40;74.90;;;;;;5059034;28;20025;-75
2021/10/30 02:27:14;;;;;;;24.60;3.45;;;15.40;75.30;;;;;;5058733;28;20104;-76
2021/10/30 02:29:39;;;;;;;19.55;3.53;;;15.40;75.40;;;;;;5058818;28;20078;-76
2021/10/30 02:32:06;;;;;;;17.25;3.50;;;15.40;75.20;;;;;;5058887;28;20044;-76
2021/10/30 02:34:32;;;;;;;16.50;3.78;;;15.40;75.30;;;;;;5058959;28;20436;-76
2021/10/30 02:36:58;;;;;;;25.42;4.53;;;15.40;75.70;;;;;;5058715;28;20083;-76
2021/10/30 02:39:24;;;;;;;21.17;3.53;;;15.40;75.70;;;;;;5058811;28;20025;-76
2021/10/30 02:41:50;;;;;;;21.50;4.28;;;15.40;75.80;;;;;;5058683;28;20101;-76
2021/10/30 02:44:15;;;;;;;22.55;4.18;;;15.40;76.00;;;;;;5058530;28;20041;-76
2021/10/30 02:46:41;;;;;;;22.45;4.05;;;15.30;76.10;;;;;;5058274;28;20094;-76
2021/10/30 02:49:07;;;;;;;9.95;2.30;;;15.30;76.80;;;;;;5058464;28;20036;-76
2021/10/30 02:51:33;;;;;;;9.52;2.00;;;15.20;76.00;;;;;;5058501;28;20032;-76
2021/10/30 02:53:59;;;;;;;6.82;1.30;;;15.20;76.10;;;;;;5058394;28;20028;-76
2021/10/30 02:56:25;;;;;;;4.25;0.93;;;15.10;75.20;;;;;;5058100;28;20100;-76
2021/10/30 02:58:51;;;;;;;8.27;1.20;;;15.00;74.90;;;;;;5058307;28;20029;-76
2021/10/30 03:01:16;;;;;;;3.03;1.05;;;14.90;74.80;;;;;;5058721;28;20021;-75
2021/10/30 03:03:42;;;;;;;9.45;1.27;;;14.90;74.60;;;;;;5058703;28;20083;-76
2021/10/30 03:06:08;;;;;;;2.15;0.85;;;14.90;74.60;;;;;;5058453;28;20021;-76
2021/10/30 03:08:35;;;;;;;4.85;1.00;;;14.90;74.50;;;;;;5058296;28;20033;-76
2021/10/30 03:11:01;;;;;;;4.80;1.33;;;14.90;74.40;;;;;;5058165;28;20033;-76
2021/10/30 03:13:28;;;;;;;5.15;1.23;;;14.80;74.10;;;;;;5058406;28;20456;-76
2021/10/30 03:15:55;;;;;;;4.28;0.93;;;14.80;74.40;;;;;;5058372;28;20040;-76
2021/10/30 03:18:21;;;;;;;8.18;1.20;;;14.80;74.30;;;;;;5058360;28;20041;-76
2021/10/30 03:20:47;;;;;;;6.82;1.05;;;14.80;74.20;;;;;;5058182;28;20017;-76
2021/10/30 03:23:13;;;;;;;6.35;0.98;;;14.80;73.80;;;;;;5058202;28;20041;-76
2021/10/30 03:25:39;;;;;;;4.93;1.00;;;14.80;74.00;;;;;;5058114;28;20413;-75
2021/10/30 03:28:05;;;;;;;5.72;0.88;;;14.80;74.60;;;;;;5056977;28;20033;-76
2021/10/30 03:30:31;;;;;;;4.95;0.90;;;14.80;74.10;;;;;;5057098;28;20021;-76
2021/10/30 03:32:58;;;;;;;5.07;0.95;;;14.80;74.10;;;;;;5058087;28;20039;-76
2021/10/30 03:35:23;;;;;;;7.38;0.90;;;14.80;74.10;;;;;;5058024;28;20025;-76
2021/10/30 03:37:49;;;;;;;7.85;1.65;;;14.80;74.10;;;;;;5056929;28;20029;-76
2021/10/30 03:40:15;;;;;;;5.57;1.00;;;14.80;74.00;;;;;;5057945;28;20025;-76
2021/10/30 03:42:41;;;;;;;7.80;1.27;;;14.80;74.00;;;;;;5056827;28;20033;-76
2021/10/30 03:45:08;;;;;;;7.68;1.65;;;14.80;74.00;;;;;;5056912;28;20358;-76
2021/10/30 03:47:33;;;;;;;6.93;1.17;;;14.80;74.00;;;;;;5057800;28;20049;-76
2021/10/30 03:50:00;;;;;;;5.60;1.10;;;14.70;74.00;;;;;;5057905;28;20079;-76
2021/10/30 03:52:26;;;;;;;5.40;0.90;;;14.70;74.00;;;;;;5056759;28;20058;-76
2021/10/30 03:54:53;;;;;;;6.45;1.55;;;14.70;74.00;;;;;;5056835;28;20528;-76
2021/10/30 03:57:20;;;;;;;6.35;1.00;;;14.70;74.00;;;;;;5057901;28;20028;-76
2021/10/30 03:59:46;;;;;;;3.85;0.90;;;14.70;74.10;;;;;;5057716;28;20035;-76
2021/10/30 04:02:12;;;;;;;4.95;0.70;;;14.70;74.10;;;;;;5057914;28;20445;-76
2021/10/30 04:04:38;;;;;;;2.13;0.60;;;14.70;73.90;;;;;;5056751;28;20053;-76
2021/10/30 04:07:04;;;;;;;5.22;1.02;;;14.70;73.90;;;;;;5058936;28;20100;-76
2021/10/30 04:09:30;;;;;;;2.80;0.90;;;14.60;73.90;;;;;;5061774;28;20045;-76
2021/10/30 04:11:56;;;;;;;5.90;0.90;;;14.60;73.90;;;;;;5061585;28;20439;-76
2021/10/30 04:14:22;;;;;;;3.92;1.00;;;14.60;74.00;;;;;;5061269;28;20040;-76
2021/10/30 04:16:49;;;;;;;3.90;0.90;;;14.60;74.00;;;;;;5061293;28;20108;-76
2021/10/30 04:19:15;;;;;;;3.45;0.85;;;14.60;74.10;;;;;;5061276;28;20017;-76
2021/10/30 04:21:41;;;;;;;2.42;0.90;;;14.60;74.10;;;;;;5061408;28;20036;-76
2021/10/30 04:24:07;;;;;;;2.92;1.13;;;14.60;74.00;;;;;;5061082;28;20520;-76
2021/10/30 04:26:33;;;;;;;5.85;1.02;;;14.50;74.00;;;;;;5061247;28;20025;-76
2021/10/30 04:29:00;;;;;;;1.45;0.90;;;14.50;73.70;;;;;;5061182;28;20076;-76
2021/10/30 04:31:28;;;;;;;5.38;1.15;;;14.50;74.00;;;;;;5061164;28;20033;-76
2021/10/30 04:33:59;;;;;;;8.02;1.50;;;14.50;74.10;;;;;;5060840;28;20447;-76
2021/10/30 04:36:27;;;;;;;1.73;0.73;;;14.50;74.10;;;;;;5060892;28;20028;-76
2021/10/30 04:38:53;;;;;;;4.25;0.98;;;14.50;74.10;;;;;;5061187;28;20029;-76
2021/10/30 04:41:19;;;;;;;9.90;1.23;;;14.50;74.20;;;;;;5060739;28;20028;-76
2021/10/30 04:43:46;;;;;;;6.07;1.00;;;14.50;74.30;;;;;;5061008;28;20013;-76
2021/10/30 04:46:18;;;;;;;13.15;1.27;;;14.50;74.30;;;;;;5060549;28;20045;-76
2021/10/30 04:48:44;;;;;;;1.65;0.70;;;14.50;74.30;;;;;;5059555;28;20033;-76
2021/10/30 04:51:11;;;;;;;2.80;1.08;;;14.50;74.30;;;;;;5060603;28;20348;-76
2021/10/30 04:53:40;;;;;;;1.77;1.00;;;14.50;74.20;;;;;;5060789;28;20059;-76
2021/10/30 04:56:07;;;;;;;1.85;0.80;;;14.40;74.20;;;;;;5060691;28;20021;-76
2021/10/30 04:58:34;;;;;;;2.92;0.90;;;14.40;74.20;;;;;;5060709;28;20024;-76
2021/10/30 05:01:01;;;;;;;2.20;0.80;;;14.40;74.20;;;;;;5060159;28;20466;-76
2021/10/30 05:03:27;;;;;;;8.00;1.27;;;14.40;74.20;;;;;;5060540;28;20112;-76
2021/10/30 05:05:53;;;;;;;6.53;1.20;;;14.40;74.30;;;;;;5060370;28;20025;-76
2021/10/30 05:08:19;;;;;;;5.35;1.20;;;14.40;74.30;;;;;;5060502;28;20527;-76
2021/10/30 05:10:45;;;;;;;9.75;1.75;;;14.40;74.30;;;;;;5060216;28;20029;-76
2021/10/30 05:13:11;;;;;;;4.82;1.00;;;14.40;74.20;;;;;;5060170;28;20031;-76
2021/10/30 05:15:36;;;;;;;4.50;0.90;;;14.40;74.20;;;;;;5059040;28;20088;-76
2021/10/30 05:18:03;;;;;;;5.03;1.02;;;14.40;74.10;;;;;;5060111;28;20021;-76
2021/10/30 05:20:30;;;;;;;4.00;0.73;;;14.40;74.20;;;;;;5060019;28;20084;-76
2021/10/30 05:22:55;;;;;;;11.13;1.40;;;14.30;74.20;;;;;;5059646;28;20055;-76
2021/10/30 05:25:24;;;;;;;4.10;1.08;;;14.30;74.20;;;;;;5059915;28;20032;-76
2021/10/30 05:27:50;;;;;;;12.75;1.30;;;14.30;74.20;;;;;;5059602;28;20102;-76
2021/10/30 05:30:17;;;;;;;3.83;1.17;;;14.30;74.20;;;;;;5059678;28;20025;-75
2021/10/30 05:32:42;;;;;;;1.85;0.73;;;14.30;74.20;;;;;;5059962;28;20354;-76
2021/10/30 05:35:09;;;;;;;7.75;0.95;;;14.30;74.20;;;;;;5059808;28;20124;-76
2021/10/30 05:37:35;;;;;;;2.28;0.80;;;14.20;74.10;;;;;;5059579;28;20037;-76
2021/10/30 05:40:03;;;;;;;2.85;0.80;;;14.20;74.20;;;;;;5058388;28;20093;-76
2021/10/30 05:42:29;;;;;;;10.18;1.20;;;14.20;74.20;;;;;;5058597;28;20029;-76
2021/10/30 05:44:55;;;;;;;6.85;1.20;;;14.20;74.20;;;;;;5059937;28;20028;-76
2021/10/30 05:47:21;;;;;;;2.83;0.63;;;14.20;74.20;;;;;;5059196;28;20139;-76
2021/10/30 05:49:47;;;;;;;5.95;1.08;;;14.20;74.10;;;;;;5058332;28;20017;-76
2021/10/30 05:52:13;;;;;;;8.40;1.20;;;14.20;74.00;;;;;;5059714;28;20397;-76
2021/10/30 05:54:39;;;;;;;4.32;1.25;;;14.20;74.10;;;;;;5059371;28;20397;-76
2021/10/30 05:57:08;;;;;;;15.52;1.75;;;14.10;74.10;;;;;;5059427;28;20029;-76
2021/10/30 05:59:34;;;;;;;7.93;1.70;;;14.20;74.20;;;;;;5059629;28;20031;-76
2021/10/30 06:02:00;;;;;;;10.38;1.30;;;14.20;74.10;;;;;;5059256;28;20025;-76
2021/10/30 06:04:25;;;;;;;9.02;2.03;;;14.10;73.80;;;;;;5059363;28;20017;-76
2021/10/30 06:06:51;;;;;;;6.55;1.20;;;14.10;74.00;;;;;;5059148;28;20036;-76
2021/10/30 06:09:18;;;;;;;6.22;1.50;;;14.10;74.10;;;;;;5059493;28;20120;-76
2021/10/30 06:11:43;;;;;;;5.70;1.63;;;14.10;74.10;;;;;;5058937;28;20029;-76
2021/10/30 06:14:10;;;;;;;5.30;1.20;;;14.00;73.80;;;;;;5058661;28;20028;-76
2021/10/30 06:16:37;;;;;;;7.57;1.83;;;14.00;73.90;;;;;;5058569;28;20041;-76
2021/10/30 06:19:04;;;;;;;8.45;1.27;;;14.00;73.80;;;;;;5057077;28;20167;-76
2021/10/30 06:21:30;;;;;;;7.22;1.00;;;14.00;73.80;;;;;;5058765;28;20443;-76
2021/10/30 06:23:59;;;;;;;8.77;1.10;;;14.00;73.80;;;;;;5058612;28;20096;-76
2021/10/30 06:26:26;;;;;;;11.05;1.33;;;14.00;73.60;;;;;;5058717;28;20036;-76
2021/10/30 06:28:52;;;;;;;5.65;1.00;;;14.00;73.60;;;;;;5058334;28;20029;-76
2021/10/30 06:31:18;;;;;;;6.72;1.10;;;13.90;73.40;;;;;;5058402;28;20029;-76
2021/10/30 06:33:44;;;;;;;8.55;1.98;;;13.90;73.70;;;;;;5058520;28;20017;-76
2021/10/30 06:36:10;;;;;;;5.75;1.10;;;13.90;73.70;;;;;;5058761;28;20040;-76
2021/10/30 06:38:36;;;;;;;9.48;1.27;;;13.90;73.70;;;;;;5058451;28;20033;-76
2021/10/30 06:41:05;;;;;;;7.03;1.50;;;13.90;73.90;;;;;;5058460;28;20032;-76
2021/10/30 06:43:31;;;;;;;9.85;1.30;;;13.90;73.90;;;;;;5058582;28;20104;-76
2021/10/30 06:45:57;;;;;;;6.28;1.10;;;13.90;73.90;;;;;;5057142;28;20037;-76
2021/10/30 06:48:24;;;;;;;10.80;1.58;;;13.90;73.90;;;;;;5058352;28;20518;-76
2021/10/30 06:50:55;;;;;;;9.10;1.20;;;13.90;74.10;;;;;;5058171;28;20049;-76
2021/10/30 06:53:22;;;;;;;5.13;1.05;;;13.90;74.30;;;;;;5058420;28;20032;-76
2021/10/30 06:55:49;;;;;;;9.10;1.30;;;13.90;74.60;;;;;;5058208;28;20033;-76
2021/10/30 06:58:17;;;;;;;5.53;1.02;;;13.90;74.70;;;;;;5058173;28;20021;-76
2021/10/30 07:00:44;;;;;;;2.17;0.80;;;13.90;74.80;;;;;;5058403;28;20055;-76
2021/10/30 07:03:10;;;;;;;5.00;0.85;;;13.90;74.60;;;;;;5057030;28;20021;-76
2021/10/30 07:05:36;;;;;;;7.18;1.05;;;14.00;74.60;;;;;;5058134;28;20530;-78
2021/10/30 07:08:03;;;;;;;5.35;0.90;;;14.00;74.90;;;;;;5058127;28;20098;-76
2021/10/30 07:10:29;;;;;;;9.43;1.38;;;14.00;75.00;;;;;;5058312;28;20051;-76
2021/10/30 07:12:55;;;;;;;9.23;1.65;;;14.00;75.10;;;;;;5058122;28;20029;-76
2021/10/30 07:15:21;;;;;;;8.48;1.35;;;14.00;75.00;;;;;;5058213;28;20043;-76
2021/10/30 07:17:47;;;;;;;5.18;1.23;;;14.00;75.00;;;;;;5057908;28;20063;-76
2021/10/30 07:20:13;;;;;;;6.82;1.50;;;14.10;75.00;;;;;;5057998;28;20088;-76
2021/10/30 07:22:47;;;;;;;5.30;1.40;;;14.00;74.80;;;;;;5058337;28;20052;-76
2021/10/30 07:25:14;;;;;;;4.78;0.95;;;14.10;74.70;;;;;;5057937;28;20455;-76
2021/10/30 07:27:41;;;;;;;3.50;1.00;;;14.00;74.80;;;;;;5058344;28;20394;-76
2021/10/30 07:30:09;;;;;;;4.43;1.20;;;14.10;75.10;;;;;;5056902;28;20055;-76
2021/10/30 07:32:35;;;;;;;3.33;0.80;;;14.10;75.20;;;;;;5058136;28;20036;-76
2021/10/30 07:35:02;;;;;;;4.28;0.93;;;14.10;75.20;;;;;;5057874;28;20029;-76
2021/10/30 07:37:30;;;;;;;4.75;0.90;;;14.10;75.20;;;;;;5057987;28;20074;-76
2021/10/30 07:39:57;;;;;;;4.00;0.88;;;14.10;75.30;;;;;;5057763;28;20078;-76
2021/10/30 07:42:23;;;;;;;6.15;0.93;;;14.10;75.20;;;;;;5059977;28;20059;-76
2021/10/30 07:44:49;;;;;;;7.90;1.10;;;14.10;75.70;;;;;;5061877;28;20029;-75
2021/10/30 07:47:15;;;;;;;3.25;1.10;;;14.10;75.40;;;;;;5061591;28;20502;-76
2021/10/30 07:49:41;;;;;;;2.55;0.80;;;14.10;75.50;;;;;;5061583;28;20031;-76
2021/10/30 07:52:09;;;;;;;6.55;1.08;;;14.10;75.60;;;;;;5061743;28;20021;-76
2021/10/30 07:54:35;;;;;;;5.30;1.05;;;14.10;75.60;;;;;;5061962;28;20024;-76
2021/10/30 07:57:06;;;;;;;1.98;0.73;;;14.10;75.70;;;;;;5060795;28;20029;-77
2021/10/30 07:59:32;;;;;;;4.40;0.85;;;14.10;75.70;;;;;;5060176;28;20029;-77
2021/10/30 08:02:01;;;;;;;4.35;0.85;;;14.10;75.80;;;;;;5061582;28;20025;-76
2021/10/30 08:04:29;;;;;;;3.75;0.82;;;14.20;75.90;;;;;;5060855;28;20021;-76
2021/10/30 08:06:55;;;;;;;1.67;0.90;;;14.20;75.80;;;;;;5061437;28;20467;-76
2021/10/30 08:09:21;;;;;;;5.30;1.17;;;14.20;75.90;;;;;;5061248;28;20029;-76
2021/10/30 08:11:48;;;;;;;8.25;1.30;;;14.20;75.90;;;;;;5061000;28;20094;-76
2021/10/30 08:14:14;;;;;;;6.93;1.15;;;14.20;75.80;;;;;;5061105;28;20028;-76
2021/10/30 08:16:40;;;;;;;8.93;1.60;;;14.10;75.50;;;;;;5060984;28;20080;-76
2021/10/30 08:19:06;;;;;;;3.67;1.30;;;13.90;75.60;;;;;;5043436;28;20037;-76
2021/10/30 08:21:33;;;;;;;9.57;1.70;;;13.80;75.80;;;;;;5059801;28;20021;-76
2021/10/30 08:23:59;;;;;;;3.30;1.10;;;13.80;75.80;;;;;;5061174;28;20017;-76
2021/10/30 08:26:25;;;;;;;8.82;1.55;;;13.80;75.70;;;;;;5061054;28;20028;-76
2021/10/30 08:28:51;;;;;;;5.85;1.70;;;13.70;75.80;;;;;;5060803;28;20025;-77
2021/10/30 08:31:18;;;;;;;6.53;1.60;;;13.70;75.90;;;;;;5059761;28;20386;-76
2021/10/30 08:33:44;;;;;;;4.93;2.35;;;13.70;75.70;;;;;;5059825;28;20033;-80
2021/10/30 08:36:10;;;;;;;9.98;3.33;;;13.70;75.90;;;;;;5060700;28;20081;-76
2021/10/30 08:38:36;;;;;;;7.63;3.20;;;13.70;76.00;;;;;;5059855;28;20501;-76
2021/10/30 08:41:03;;;;;;;11.40;3.20;;;13.80;76.00;;;;;;5060582;28;20036;-76
2021/10/30 08:43:29;;;;;;;9.95;2.72;;;13.70;75.90;;;;;;5060832;28;20053;-76
2021/10/30 08:46:00;;;;;;;8.82;2.55;;;13.70;76.10;;;;;;5060448;28;20025;-76
2021/10/30 08:48:30;;;;;;;9.10;4.72;;;13.70;76.00;;;;;;5060642;28;20050;-76
2021/10/30 08:50:57;;;;;;;15.32;8.20;;;13.80;76.00;;;;;;5059075;28;20403;-76
2021/10/30 08:53:23;;;;;;;12.70;4.95;;;13.80;75.90;;;;;;5059335;28;20301;-76
2021/10/30 08:55:49;;;;;;;7.97;3.10;;;13.80;76.10;;;;;;5060410;28;20021;-75
2021/10/30 08:58:16;;;;;;;7.78;2.53;;;13.80;75.60;;;;;;5060444;28;20029;-75
2021/10/30 09:00:45;;;;;;;12.00;2.78;;;13.80;76.00;;;;;;5060618;28;20021;-75
2021/10/30 09:03:13;;;;;;;8.25;2.00;;;13.70;75.80;;;;;;5060552;28;20056;-76
2021/10/30 09:05:42;;;;;;;8.98;2.60;;;13.80;76.30;;;;;;5059393;28;20037;-76
2021/10/30 09:08:09;;;;;;;4.95;1.40;;;13.80;76.90;;;;;;5059218;28;20044;-75
2021/10/30 09:10:39;;;;;;;21.63;14.15;;;13.90;76.70;;;;;;5059199;28;20033;-76
2021/10/30 09:13:09;;;;;;;14.50;2.88;;;13.90;76.40;;;;;;5060032;28;20025;-76
2021/10/30 09:15:43;;;;;;;37.05;21.52;;;14.00;76.40;;;;;;5060490;28;20063;-76
2021/10/30 09:18:29;;;;;;;;;;;14.00;76.20;;;;;;5060672;28;20028;-76
2021/10/30 09:20:57;;;;;;;11.90;4.93;;;14.10;76.40;;;;;;5060500;28;19923;-76
2021/10/30 09:23:37;;;;;;;11.77;3.30;;;14.20;76.60;;;;;;5060168;28;20405;-76
2021/10/30 09:26:06;;;;;;;19.38;9.52;;;14.20;76.50;;;;;;5060146;28;20028;-76
2021/10/30 09:28:38;;;;;;;8.43;2.67;;;14.30;76.00;;;;;;5058871;28;20047;-75
2021/10/30 09:31:06;;;;;;;10.30;2.78;;;14.40;76.20;;;;;;5058792;28;20021;-76
2021/10/30 09:33:34;;;;;;;9.27;2.20;;;14.60;76.30;;;;;;5059742;28;20494;-75
2021/10/30 09:36:12;;;;;;;10.07;2.33;;;14.70;75.00;;;;;;5059978;28;20087;-75
2021/10/30 09:38:41;;;;;;;12.07;2.72;;;14.80;74.50;;;;;;5060114;28;20363;-75
2021/10/30 09:41:28;;;;;;;10.00;2.30;;;14.90;74.90;;;;;;5058540;28;20413;-75
2021/10/30 09:43:59;;;;;;;9.18;2.58;;;15.10;75.20;;;;;;5059840;28;20049;-76
2021/10/30 09:46:27;;;;;;;11.60;2.70;;;15.20;74.90;;;;;;5059500;28;20068;-76
2021/10/30 09:48:54;;;;;;;8.25;1.92;;;15.40;74.60;;;;;;5059494;28;20037;-76
2021/10/30 09:51:31;;;;;;;13.38;4.65;;;15.50;71.80;;;;;;5059631;28;20025;-76
2021/10/30 09:53:57;;;;;;;12.20;2.38;;;15.50;74.60;;;;;;5059772;28;20029;-76
2021/10/30 09:56:46;;;;;;;15.00;7.22;;;15.80;72.60;;;;;;5059402;28;20032;-76
2021/10/30 09:59:18;;;;;;;13.77;3.00;;;16.00;74.10;;;;;;5059238;28;20480;-76
2021/10/30 10:01:49;;;;;;;17.90;10.73;;;16.10;74.80;;;;;;5058226;28;20037;-76
2021/10/30 10:04:17;;;;;;;14.48;5.88;;;16.10;70.20;;;;;;5058186;28;20036;-76
2021/10/30 10:06:44;;;;;;;24.35;21.90;;;16.30;74.30;;;;;;5058847;28;20017;-81
2021/10/30 10:09:17;;;;;;;16.40;7.32;;;16.40;71.50;;;;;;5059331;28;20025;-76
2021/10/30 10:11:49;;;;;;;16.83;6.47;;;16.40;69.70;;;;;;5059206;28;20026;-76
2021/10/30 10:14:22;;;;;;;11.57;3.92;;;16.60;72.20;;;;;;5058035;28;20028;-76
2021/10/30 10:16:53;;;;;;;9.13;3.97;;;16.80;70.40;;;;;;5059086;28;20417;-81
2021/10/30 10:19:19;;;;;;;8.73;3.67;;;16.90;69.70;;;;;;5059113;28;20471;-76
2021/10/30 10:21:47;;;;;;;8.23;2.40;;;16.80;68.30;;;;;;5059006;28;20025;-77
2021/10/30 10:24:17;;;;;;;13.65;3.95;;;16.80;68.80;;;;;;5057869;28;20021;-76
2021/10/30 10:26:48;;;;;;;9.10;2.60;;;16.80;70.40;;;;;;5057686;28;20021;-77
2021/10/30 10:29:37;;;;;;;8.38;2.85;;;16.80;69.50;;;;;;5057757;28;20120;-76
2021/10/30 10:32:07;;;;;;;7.25;2.45;;;16.80;70.40;;;;;;5055988;28;20041;-76
2021/10/30 10:34:36;;;;;;;16.90;12.73;;;17.10;67.10;;;;;;5041022;28;20037;-76
2021/10/30 10:37:11;;;;;;;9.00;3.58;;;17.30;65.30;;;;;;5057708;28;20036;-76
2021/10/30 10:39:41;;;;;;;26.60;16.38;;;17.40;67.60;;;;;;5058495;28;20466;-76
2021/10/30 10:42:12;;;;;;;15.68;8.27;;;17.20;64.50;;;;;;5057509;28;20068;-81
2021/10/30 10:44:41;;;;;;;13.60;5.05;;;17.10;65.10;;;;;;5057713;28;20032;-76
2021/10/30 10:47:31;;;;;;;14.75;3.60;;;17.20;66.60;;;;;;5058228;28;20045;-76
2021/10/30 10:50:15;;;;;;;15.10;8.40;;;17.20;66.20;;;;;;5058416;28;20421;-76
2021/10/30 10:53:07;;;;;;;11.07;4.40;;;17.30;64.20;;;;;;5058609;28;20493;-80
2021/10/30 10:55:37;;;;;;;10.57;4.55;;;17.50;64.50;;;;;;5057543;28;20358;-79
2021/10/30 10:58:08;;;;;;;11.68;5.15;;;17.60;63.80;;;;;;5058170;28;20032;-79
2021/10/30 11:00:35;;;;;;;12.13;5.50;;;17.80;65.90;;;;;;5058486;28;20465;-79
2021/10/30 11:03:01;;;;;;;13.35;6.97;;;17.70;64.70;;;;;;5058411;28;20035;-79
2021/10/30 11:05:35;;;;;;;16.40;7.30;;;17.70;64.80;;;;;;5058106;28;20088;-79
2021/10/30 11:08:31;;;;;;;7.50;2.05;;;17.60;64.70;;;;;;5058504;28;20027;-76
2021/10/30 11:11:27;;;;;;;7.65;1.80;;;17.70;63.10;;;;;;5058185;28;20102;-78
2021/10/30 11:14:00;;;;;;;5.13;1.48;;;18.00;62.00;;;;;;5054017;28;20083;-78
2021/10/30 11:16:29;;;;;;;8.70;3.67;;;18.10;64.40;;;;;;5059902;28;20036;-78
2021/10/30 11:19:03;;;;;;;10.48;3.80;;;18.30;61.30;;;;;;5062370;28;20033;-77
2021/10/30 11:21:38;;;;;;;16.98;8.27;;;18.10;63.00;;;;;;5062461;28;20052;-77
2021/10/30 11:24:18;;;;;;;35.78;22.55;;;18.10;60.40;;;;;;5062389;28;20027;-76
2021/10/30 11:26:54;;;;;;;31.50;20.98;;;18.00;63.00;;;;;;5062191;28;20025;-78
2021/10/30 11:29:20;;;;;;;30.38;17.40;;;18.20;61.70;;;;;;5062260;28;20020;-77
2021/10/30 11:31:52;;;;;;;29.08;18.92;;;18.40;60.10;;;;;;5061887;28;20080;-76
2021/10/30 11:34:20;;;;;;;16.70;8.93;;;18.20;59.60;;;;;;5061673;28;20367;-77
2021/10/30 11:36:46;;;;;;;19.35;12.75;;;18.20;61.20;;;;;;5062088;28;20037;-77
2021/10/30 11:39:13;;;;;;;12.75;5.35;;;18.50;61.20;;;;;;5061669;28;20028;-77
2021/10/30 11:41:41;;;;;;;15.10;8.35;;;18.90;59.90;;;;;;5060902;28;20031;-75
2021/10/30 11:44:15;;;;;;;7.07;2.70;;;19.50;58.80;;;;;;5061733;28;20473;-77
2021/10/30 11:46:46;;;;;;;10.13;2.60;;;19.60;56.30;;;;;;5061681;28;20120;-78
2021/10/30 11:49:26;;;;;;;7.47;2.22;;;19.60;60.20;;;;;;5061729;28;20447;-77
2021/10/30 11:51:58;;;;;;;7.65;2.38;;;19.50;54.60;;;;;;5061887;28;20033;-77
2021/10/30 11:54:24;;;;;;;5.70;2.47;;;19.40;56.90;;;;;;5061684;28;20029;-77
2021/10/30 11:56:50;;;;;;;19.88;11.23;;;19.50;56.40;;;;;;5061594;28;20025;-78
2021/10/30 11:59:16;;;;;;;28.17;17.88;;;19.70;55.60;;;;;;5061837;28;20475;-78
2021/10/30 12:01:44;;;;;;;18.20;8.55;;;19.70;56.40;;;;;;5061798;28;20036;-77
2021/10/30 12:04:21;;;;;;;10.73;4.30;;;19.90;58.90;;;;;;5061612;28;20473;-78
2021/10/30 12:06:55;;;;;;;7.68;2.50;;;20.20;53.00;;;;;;5061602;28;20044;-77
2021/10/30 12:09:39;;;;;;;7.82;2.08;;;20.10;53.20;;;;;;5061572;28;20118;-76
2021/10/30 12:12:06;;;;;;;9.93;3.72;;;19.60;56.20;;;;;;5061580;28;20021;-78
2021/10/30 12:14:34;;;;;;;22.17;16.60;;;19.80;54.10;;;;;;5060197;28;20063;-77
2021/10/30 12:17:21;;;;;;;34.33;30.05;;;19.90;56.80;;;;;;5060209;28;20033;-77
2021/10/30 12:20:09;;;;;;;21.67;13.43;;;19.60;57.20;;;;;;5061259;28;20029;-77
2021/10/30 12:22:44;;;;;;;8.70;3.25;;;19.60;54.00;;;;;;5061206;28;20016;-77
2021/10/30 12:25:12;;;;;;;6.28;1.90;;;19.80;54.00;;;;;;5061037;28;20089;-78
2021/10/30 12:27:53;;;;;;;8.32;2.10;;;19.70;52.80;;;;;;5059592;28;20109;-77
2021/10/30 12:30:22;;;;;;;6.28;1.98;;;19.80;52.30;;;;;;5059772;28;20033;-77
2021/10/30 12:32:49;;;;;;;9.60;3.00;;;19.70;51.50;;;;;;5060985;28;20032;-78
2021/10/30 12:35:21;;;;;;;14.80;7.53;;;19.50;54.20;;;;;;5060854;28;20067;-74
2021/10/30 12:37:48;;;;;;;17.75;8.55;;;19.50;56.10;;;;;;5060659;28;20105;-77
2021/10/30 12:40:15;;;;;;;17.20;7.72;;;19.80;54.40;;;;;;5060651;28;20421;-78
2021/10/30 12:42:42;;;;;;;8.98;2.53;;;21.10;52.00;;;;;;5060692;28;20104;-78
2021/10/30 12:45:08;;;;;;;6.13;1.80;;;23.60;47.10;;;;;;5060818;28;20040;-78
2021/10/30 12:47:35;;;;;;;7.07;1.40;;;24.80;43.80;;;;;;5060335;28;20037;-78